Time;durP1;ratioP1;P1;durP2;ratioP2;P2;SDS_P1;SDS_P2;PMS_P1;PMS_P2;Temp;Humidity;BMP_temperature;BMP_pressure;BME280_temperature;BME280_humidity;BME280_pressure;Samples;Min_cycle;Max_cycle;Signal;HPM_P1;HPM_P2
2023/05/10 00:00:02;;;;;;;2.50;1.20;;;;;;;14.00;100.00;97460.63;5113912;28;20223;-75
2023/05/10 00:02:28;;;;;;;4.67;1.10;;;;;;;13.86;100.00;97448.75;5114071;28;20675;-75
2023/05/10 00:04:54;;;;;;;1.23;1.17;;;;;;;13.89;100.00;97461.59;5113920;28;20203;-75
2023/05/10 00:07:21;;;;;;;1.80;0.90;;;;;;;13.87;100.00;97455.69;5114382;28;20229;-75
2023/05/10 00:09:47;;;;;;;2.30;1.00;;;;;;;13.75;100.00;97461.19;5097821;28;20199;-75
2023/05/10 00:12:14;;;;;;;2.10;0.80;;;;;;;13.70;100.00;97469.16;5098104;28;20566;-76
2023/05/10 00:14:40;;;;;;;1.07;0.60;;;;;;;13.65;100.00;97476.34;5097875;28;20210;-75
2023/05/10 00:17:06;;;;;;;0.60;0.60;;;;;;;13.60;100.00;97471.75;5097688;28;20300;-75
2023/05/10 00:19:33;;;;;;;0.90;0.60;;;;;;;13.60;100.00;97476.25;5097161;28;20774;-75
2023/05/10 00:21:59;;;;;;;0.70;0.70;;;;;;;13.56;100.00;97475.97;5097540;28;20674;-76
2023/05/10 00:24:25;;;;;;;1.53;0.57;;;;;;;13.47;100.00;97464.13;5097220;28;20692;-76
2023/05/10 00:26:52;;;;;;;1.90;0.40;;;;;;;13.44;100.00;97461.97;5097606;28;20225;-76
2023/05/10 00:29:19;;;;;;;1.70;0.50;;;;;;;13.39;100.00;97461.91;5097608;28;20211;-76
2023/05/10 00:31:52;;;;;;;1.37;0.47;;;;;;;13.34;100.00;97453.03;5098483;28;20203;-76
2023/05/10 00:34:24;;;;;;;2.00;0.30;;;;;;;13.26;100.00;97461.50;5098269;28;20700;-76
2023/05/10 00:36:51;;;;;;;1.23;0.40;;;;;;;13.21;100.00;97458.75;5097857;28;20260;-76
2023/05/10 00:39:20;;;;;;;0.37;0.30;;;;;;;13.15;100.00;97460.56;5097208;28;20217;-76
2023/05/10 00:41:46;;;;;;;0.30;0.30;;;;;;;13.18;100.00;97460.06;5097424;28;20294;-75
2023/05/10 00:44:13;;;;;;;1.37;0.40;;;;;;;13.18;100.00;97470.75;5096777;28;20700;-76
2023/05/10 00:46:39;;;;;;;0.40;0.40;;;;;;;13.13;100.00;97470.69;5096672;28;20224;-76
2023/05/10 00:49:06;;;;;;;0.93;0.30;;;;;;;13.08;100.00;97467.97;5097176;28;20211;-76
2023/05/10 00:51:33;;;;;;;0.57;0.30;;;;;;;13.15;100.00;97473.13;5097051;28;20566;-76
2023/05/10 00:53:59;;;;;;;1.63;0.43;;;;;;;13.07;100.00;97484.22;5096887;28;20207;-76
2023/05/10 00:56:29;;;;;;;0.47;0.40;;;;;;;13.04;100.00;97474.03;5096777;28;20318;-76
2023/05/10 00:58:56;;;;;;;2.47;0.50;;;;;;;13.09;100.00;97487.44;5096833;28;20261;-76
2023/05/10 01:01:22;;;;;;;0.77;0.40;;;;;;;13.02;100.00;97494.84;5096738;28;20234;-76
2023/05/10 01:03:49;;;;;;;0.30;0.30;;;;;;;12.98;100.00;97493.72;5096655;28;20219;-76
2023/05/10 01:06:16;;;;;;;0.30;0.30;;;;;;;12.96;100.00;97493.91;5096691;28;20225;-76
2023/05/10 01:08:42;;;;;;;0.40;0.40;;;;;;;12.94;100.00;97496.00;5096640;28;20202;-77
2023/05/10 01:11:09;;;;;;;2.70;0.40;;;;;;;12.94;100.00;97489.88;5096573;28;20594;-77
2023/05/10 01:13:39;;;;;;;1.50;0.30;;;;;;;12.98;100.00;97491.03;5096211;28;20578;-77
2023/05/10 01:16:06;;;;;;;1.17;0.40;;;;;;;12.98;100.00;97481.16;5096414;28;20226;-77
2023/05/10 01:18:38;;;;;;;1.10;0.40;;;;;;;12.93;100.00;97491.72;5094959;28;20745;-76
2023/05/10 01:21:25;;;;;;;0.40;0.40;;;;;;;12.91;100.00;97498.38;5096058;28;20242;-77
2023/05/10 01:24:32;;;;;;;1.03;0.50;;;;;;;12.89;100.00;97498.63;5096409;28;20188;-76
2023/05/10 01:27:39;;;;;;;4.00;0.47;;;;;;;12.93;100.00;97499.75;5095103;28;20258;-77
2023/05/10 01:30:10;;;;;;;0.53;0.30;;;;;;;12.89;100.00;97497.81;5053738;28;20205;-77
2023/05/10 01:33:00;;;;;;;3.13;0.50;;;;;;;12.83;100.00;97499.59;5053835;28;20209;-76
2023/05/10 01:35:56;;;;;;;0.80;0.47;;;;;;;12.85;100.00;97507.38;5075232;28;20233;-77
2023/05/10 01:38:50;;;;;;;1.03;0.47;;;;;;;12.88;100.00;97507.69;5094618;28;20187;-76
2023/05/10 01:41:26;;;;;;;0.50;0.50;;;;;;;12.86;100.00;97514.31;5095965;28;20214;-76
2023/05/10 01:44:01;;;;;;;0.67;0.50;;;;;;;12.85;100.00;97508.16;5096009;28;20244;-76
2023/05/10 01:46:37;;;;;;;0.63;0.60;;;;;;;12.87;100.00;97516.75;5095883;28;20231;-76
2023/05/10 01:49:08;;;;;;;1.23;0.60;;;;;;;12.81;100.00;97512.41;5096228;28;20211;-76
2023/05/10 01:52:00;;;;;;;0.70;0.70;;;;;;;12.78;100.00;97523.56;5095800;28;20202;-76
2023/05/10 01:54:29;;;;;;;1.17;0.60;;;;;;;12.78;100.00;97520.06;5095459;28;20252;-76
2023/05/10 01:57:07;;;;;;;0.57;0.50;;;;;;;12.77;100.00;97529.13;5095707;28;20227;-76
2023/05/10 01:59:39;;;;;;;3.37;0.60;;;;;;;12.72;100.00;97521.88;5095489;28;20210;-76
2023/05/10 02:02:06;;;;;;;1.00;0.60;;;;;;;12.77;100.00;97534.47;5094513;28;20253;-76
2023/05/10 02:04:36;;;;;;;0.87;0.50;;;;;;;12.72;100.00;97527.22;5095310;28;20219;-76
2023/05/10 02:07:03;;;;;;;0.77;0.63;;;;;;;12.72;100.00;97527.22;5095500;28;20581;-77
2023/05/10 02:09:32;;;;;;;0.50;0.50;;;;;;;12.70;100.00;97526.63;5095520;28;20200;-77
2023/05/10 02:12:02;;;;;;;0.60;0.60;;;;;;;12.73;100.00;97536.81;5095434;28;20204;-77
2023/05/10 02:14:31;;;;;;;0.70;0.70;;;;;;;12.71;100.00;97533.56;5095362;28;20219;-77
2023/05/10 02:16:59;;;;;;;0.80;0.53;;;;;;;12.70;100.00;97526.63;5095230;28;20228;-77
2023/05/10 02:19:27;;;;;;;0.83;0.67;;;;;;;12.73;100.00;97534.16;5095289;28;20210;-77
2023/05/10 02:21:56;;;;;;;1.60;0.50;;;;;;;12.67;100.00;97527.13;5094781;28;20227;-77
2023/05/10 02:24:25;;;;;;;0.80;0.57;;;;;;;12.65;100.00;97531.88;5095921;28;20206;-78
2023/05/10 02:26:55;;;;;;;0.60;0.60;;;;;;;12.61;100.00;97536.09;5095321;28;20228;-77
2023/05/10 02:29:24;;;;;;;2.40;0.70;;;;;;;12.64;100.00;97540.94;5095088;28;20267;-77
2023/05/10 02:31:53;;;;;;;3.40;0.60;;;;;;;12.57;100.00;97550.97;5094783;28;20200;-77
2023/05/10 02:34:21;;;;;;;1.90;0.60;;;;;;;12.62;100.00;97556.38;5094947;28;20207;-77
2023/05/10 02:36:48;;;;;;;0.53;0.53;;;;;;;12.61;100.00;97554.75;5094838;28;20231;-77
2023/05/10 02:39:16;;;;;;;0.60;0.40;;;;;;;12.61;100.00;97560.09;5094508;28;20693;-77
2023/05/10 02:41:43;;;;;;;1.90;0.60;;;;;;;12.59;100.00;97554.22;5095233;28;20252;-77
2023/05/10 02:44:10;;;;;;;0.50;0.50;;;;;;;12.63;100.00;97558.00;5094522;28;20662;-77
2023/05/10 02:46:37;;;;;;;2.37;0.50;;;;;;;12.63;100.00;97563.34;5094666;28;20231;-77
2023/05/10 02:49:04;;;;;;;0.50;0.50;;;;;;;12.66;100.00;97570.03;5094416;28;20610;-77
2023/05/10 02:51:33;;;;;;;2.43;0.60;;;;;;;12.66;100.00;97562.84;5094325;28;20582;-77
2023/05/10 02:54:07;;;;;;;0.90;0.60;;;;;;;12.75;100.00;97553.38;5094328;28;20214;-77
2023/05/10 02:56:36;;;;;;;1.07;0.60;;;;;;;12.65;100.00;97561.22;5094554;28;20230;-77
2023/05/10 02:59:03;;;;;;;0.50;0.50;;;;;;;12.71;100.00;97565.56;5094462;28;20200;-77
2023/05/10 03:01:30;;;;;;;1.27;0.50;;;;;;;12.73;100.00;97560.00;5094315;28;20227;-77
2023/05/10 03:03:56;;;;;;;0.50;0.50;;;;;;;12.75;100.00;97550.69;5094028;28;20207;-77
2023/05/10 03:06:23;;;;;;;0.50;0.50;;;;;;;12.62;100.00;97561.69;5093953;28;20232;-77
2023/05/10 03:08:49;;;;;;;1.23;0.50;;;;;;;12.54;100.00;97564.81;5093224;28;20583;-77
2023/05/10 03:11:27;;;;;;;0.50;0.50;;;;;;;12.57;100.00;97561.63;5094240;28;20195;-77
2023/05/10 03:14:13;;;;;;;1.50;0.70;;;;;;;12.45;100.00;97571.59;5094417;28;20552;-78
2023/05/10 03:16:46;;;;;;;0.63;0.50;;;;;;;12.52;100.00;97572.22;5092814;28;20265;-77
2023/05/10 03:19:31;;;;;;;1.43;0.50;;;;;;;12.49;100.00;97571.91;5094741;28;20199;-77
2023/05/10 03:22:04;;;;;;;0.97;0.60;;;;;;;12.58;100.00;97573.94;5094094;28;20245;-77
2023/05/10 03:24:31;;;;;;;0.63;0.50;;;;;;;12.65;100.00;97568.41;5094866;28;20190;-77
2023/05/10 03:27:02;;;;;;;2.03;0.60;;;;;;;12.62;100.00;97571.59;5092767;28;20226;-77
2023/05/10 03:29:30;;;;;;;1.67;0.60;;;;;;;12.68;100.00;97571.41;5093751;28;20761;-77
2023/05/10 03:31:59;;;;;;;0.70;0.60;;;;;;;12.62;100.00;97575.03;5093958;28;20226;-78
2023/05/10 03:34:25;;;;;;;2.10;0.70;;;;;;;12.64;100.00;97567.63;5093966;28;20207;-77
2023/05/10 03:36:52;;;;;;;0.70;0.70;;;;;;;12.67;100.00;97575.16;5093549;28;20227;-77
2023/05/10 03:39:19;;;;;;;1.33;0.87;;;;;;;12.70;100.00;97574.63;5093444;28;20706;-77
2023/05/10 03:41:45;;;;;;;0.90;0.90;;;;;;;12.69;100.00;97577.53;5092678;28;20235;-77
2023/05/10 03:44:11;;;;;;;1.93;1.07;;;;;;;12.66;100.00;97578.84;5093440;28;20285;-77
2023/05/10 03:46:38;;;;;;;3.23;1.30;;;;;;;12.67;100.00;97580.47;5093319;28;20234;-77
2023/05/10 03:49:04;;;;;;;0.80;0.73;;;;;;;12.68;100.00;97578.59;5093360;28;20213;-77
2023/05/10 03:51:30;;;;;;;0.83;0.80;;;;;;;12.62;100.00;97583.03;5093462;28;20207;-77
2023/05/10 03:53:57;;;;;;;1.20;1.10;;;;;;;12.68;100.00;97581.25;5093633;28;20314;-77
2023/05/10 03:56:23;;;;;;;0.80;0.80;;;;;;;12.67;100.00;97577.00;5093381;28;20713;-77
2023/05/10 03:58:50;;;;;;;1.23;1.00;;;;;;;12.63;100.00;97584.69;5093566;28;20203;-77
2023/05/10 04:01:16;;;;;;;1.07;1.00;;;;;;;12.67;100.00;97585.00;5093204;28;20231;-77
2023/05/10 04:03:43;;;;;;;0.90;0.90;;;;;;;12.68;100.00;97586.59;5093238;28;20204;-77
2023/05/10 04:06:11;;;;;;;0.80;0.80;;;;;;;12.63;100.00;97589.19;5093534;28;20277;-77
2023/05/10 04:08:37;;;;;;;2.53;0.83;;;;;;;12.64;100.00;97588.94;5093396;28;20207;-73
2023/05/10 04:11:12;;;;;;;3.60;0.80;;;;;;;12.61;100.00;97592.09;5093454;28;20204;-73
2023/05/10 04:13:38;;;;;;;1.63;0.80;;;;;;;12.57;100.00;97587.50;5093441;28;20210;-73
2023/05/10 04:16:05;;;;;;;1.33;0.70;;;;;;;12.59;100.00;97591.53;5093012;28;20636;-73
2023/05/10 04:18:32;;;;;;;3.50;0.80;;;;;;;12.57;100.00;97585.63;5093477;28;20211;-73
2023/05/10 04:20:58;;;;;;;1.10;1.00;;;;;;;12.59;100.00;97588.88;5093052;28;20234;-73
2023/05/10 04:23:25;;;;;;;2.67;0.80;;;;;;;12.57;100.00;97598.16;5093399;28;20211;-73
2023/05/10 04:25:51;;;;;;;0.83;0.83;;;;;;;12.61;100.00;97591.31;5093164;28;20226;-73
2023/05/10 04:28:18;;;;;;;3.60;0.80;;;;;;;12.66;100.00;97588.72;5093194;28;20211;-73
2023/05/10 04:30:44;;;;;;;2.63;0.90;;;;;;;12.58;100.00;97592.59;5093189;28;20206;-76
2023/05/10 04:33:10;;;;;;;0.80;0.80;;;;;;;12.58;100.00;97594.44;5093382;28;20201;-77
2023/05/10 04:35:37;;;;;;;1.00;1.00;;;;;;;12.56;100.00;97593.88;5093175;28;20228;-76
2023/05/10 04:38:03;;;;;;;0.93;0.80;;;;;;;12.61;100.00;97596.63;5093175;28;20204;-76
2023/05/10 04:40:29;;;;;;;2.60;0.87;;;;;;;12.62;100.00;97601.69;5093004;28;20216;-76
2023/05/10 04:42:56;;;;;;;0.93;0.80;;;;;;;12.68;100.00;97602.59;5092730;28;20252;-76
2023/05/10 04:45:22;;;;;;;1.20;0.90;;;;;;;12.64;100.00;97602.28;5092717;28;20230;-76
2023/05/10 04:47:48;;;;;;;1.37;0.70;;;;;;;12.70;100.00;97605.84;5092869;28;20211;-76
2023/05/10 04:50:15;;;;;;;0.90;0.83;;;;;;;12.76;100.00;97604.88;5092645;28;20678;-76
2023/05/10 04:52:41;;;;;;;1.10;1.00;;;;;;;12.82;100.00;97612.72;5092655;28;20562;-76
2023/05/10 04:55:09;;;;;;;1.00;0.80;;;;;;;12.86;100.00;97615.69;5098271;28;20207;-77
2023/05/10 04:57:36;;;;;;;1.30;1.10;;;;;;;12.84;100.00;97618.59;5096491;28;20200;-76
2023/05/10 05:00:02;;;;;;;2.70;1.37;;;;;;;12.89;100.00;97610.66;5096486;28;20254;-76
2023/05/10 05:02:29;;;;;;;2.30;1.00;;;;;;;12.90;100.00;97612.31;5096385;28;20262;-76
2023/05/10 05:04:58;;;;;;;1.43;0.70;;;;;;;12.88;100.00;97613.59;5096196;28;20572;-76
2023/05/10 05:07:25;;;;;;;1.90;0.90;;;;;;;12.95;100.00;97617.72;5096213;28;20257;-76
2023/05/10 05:09:51;;;;;;;2.10;0.90;;;;;;;13.02;100.00;97612.25;5096414;28;20218;-76
2023/05/10 05:12:17;;;;;;;1.90;0.70;;;;;;;13.06;100.00;97616.03;5096313;28;20215;-76
2023/05/10 05:14:44;;;;;;;1.70;0.80;;;;;;;13.03;100.00;97617.31;5096438;28;20204;-76
2023/05/10 05:17:10;;;;;;;2.50;0.80;;;;;;;13.06;100.00;97619.50;5095928;28;20731;-76
2023/05/10 05:19:37;;;;;;;1.60;0.83;;;;;;;13.13;100.00;97620.16;5095979;28;20211;-76
2023/05/10 05:22:03;;;;;;;1.40;0.70;;;;;;;13.11;100.00;97627.56;5095683;28;20219;-76
2023/05/10 05:24:30;;;;;;;1.67;0.80;;;;;;;13.21;100.00;97621.59;5095696;28;20570;-76
2023/05/10 05:26:56;;;;;;;1.63;1.00;;;;;;;13.25;100.00;97626.16;5095990;28;20223;-76
2023/05/10 05:29:22;;;;;;;1.77;0.90;;;;;;;13.20;100.00;97634.09;5096076;28;20248;-76
2023/05/10 05:31:49;;;;;;;0.60;0.60;;;;;;;13.23;100.00;97627.47;5095596;28;20242;-76
2023/05/10 05:34:15;;;;;;;0.80;0.80;;;;;;;13.28;100.00;97635.56;5095662;28;20215;-76
2023/05/10 05:36:42;;;;;;;1.33;0.80;;;;;;;13.33;100.00;97632.94;5095782;28;20280;-76
2023/05/10 05:39:08;;;;;;;2.93;0.80;;;;;;;13.25;100.00;97631.50;5095710;28;20207;-76
2023/05/10 05:41:34;;;;;;;1.17;0.80;;;;;;;13.23;100.00;97638.97;5095088;28;20587;-76
2023/05/10 05:44:01;;;;;;;1.23;0.70;;;;;;;13.26;100.00;97641.16;5095556;28;20200;-77
2023/05/10 05:46:27;;;;;;;0.80;0.80;;;;;;;13.33;100.00;97632.94;5095506;28;20231;-76
2023/05/10 05:48:53;;;;;;;1.90;1.00;;;;;;;13.35;100.00;97637.00;5095706;28;20212;-76
2023/05/10 05:51:20;;;;;;;1.40;0.83;;;;;;;13.44;100.00;97648.06;5095515;28;20204;-76
2023/05/10 05:53:46;;;;;;;1.63;0.97;;;;;;;13.47;100.00;97640.38;5095595;28;20659;-73
2023/05/10 05:56:12;;;;;;;1.80;0.90;;;;;;;13.48;100.00;97647.31;5095233;28;20587;-73
2023/05/10 05:58:39;;;;;;;1.60;0.90;;;;;;;13.51;100.00;97641.50;5095638;28;20248;-73
2023/05/10 06:01:05;;;;;;;1.20;1.10;;;;;;;13.47;100.00;97651.03;5095093;28;20220;-73
2023/05/10 06:03:32;;;;;;;1.33;0.83;;;;;;;13.51;100.00;97651.34;5095283;28;20211;-72
2023/05/10 06:05:58;;;;;;;2.27;1.00;;;;;;;13.53;100.00;97649.25;5094215;28;20714;-71
2023/05/10 06:08:25;;;;;;;2.60;0.80;;;;;;;13.51;100.00;97651.34;5094896;28;20218;-72
2023/05/10 06:10:51;;;;;;;3.77;1.20;;;;;;;13.49;100.00;97648.13;5094750;28;20204;-73
2023/05/10 06:13:18;;;;;;;1.80;0.70;;;;;;;13.50;100.00;97655.09;5094661;28;20630;-73
2023/05/10 06:15:44;;;;;;;3.23;1.10;;;;;;;13.63;100.00;97657.41;5094611;28;20714;-73
2023/05/10 06:18:10;;;;;;;0.90;0.90;;;;;;;13.57;100.00;97664.53;5094482;28;20659;-74
2023/05/10 06:20:37;;;;;;;1.50;0.90;;;;;;;13.60;100.00;97672.06;5095942;28;20215;-73
2023/05/10 06:23:03;;;;;;;1.00;0.90;;;;;;;13.73;100.00;97674.38;5095757;28;20224;-73
2023/05/10 06:25:30;;;;;;;2.03;1.03;;;;;;;13.71;100.00;97671.13;5095252;28;20734;-73
2023/05/10 06:27:57;;;;;;;0.90;0.90;;;;;;;13.74;100.00;97677.84;5104604;28;20201;-74
2023/05/10 06:30:27;;;;;;;0.80;0.80;;;;;;;13.64;100.00;97672.38;5115086;28;20231;-73
2023/05/10 06:32:54;;;;;;;0.77;0.73;;;;;;;13.68;100.00;97668.97;5114116;28;20260;-73
2023/05/10 06:35:20;;;;;;;1.53;1.20;;;;;;;13.70;100.00;97666.84;5113547;28;20692;-73
2023/05/10 06:37:47;;;;;;;2.23;0.90;;;;;;;13.62;100.00;97675.28;5113841;28;20225;-73
2023/05/10 06:40:14;;;;;;;1.80;1.10;;;;;;;13.66;100.00;97670.28;5113894;28;20263;-73
2023/05/10 06:42:40;;;;;;;1.97;0.80;;;;;;;13.67;100.00;97678.03;5113399;28;20238;-73
2023/05/10 06:45:08;;;;;;;0.83;0.83;;;;;;;13.69;100.00;97675.09;5114179;28;20203;-72
2023/05/10 06:47:34;;;;;;;1.40;0.97;;;;;;;13.71;100.00;97673.78;5115626;28;20199;-73
2023/05/10 06:50:01;;;;;;;3.23;0.90;;;;;;;13.77;100.00;97678.16;5115375;27;20203;-73
2023/05/10 06:52:27;;;;;;;1.33;0.90;;;;;;;13.78;100.00;97668.28;5115461;28;20203;-73
2023/05/10 06:54:53;;;;;;;1.50;1.03;;;;;;;13.69;100.00;97686.59;5111552;28;20203;-72
2023/05/10 06:57:20;;;;;;;0.90;0.90;;;;;;;13.76;100.00;97683.75;5103699;28;20210;-72
2023/05/10 06:59:47;;;;;;;0.93;0.93;;;;;;;13.80;100.00;97682.19;5105295;28;20674;-73
2023/05/10 07:02:14;;;;;;;4.20;0.90;;;;;;;13.74;100.00;97680.53;5103804;28;20251;-73
2023/05/10 07:04:41;;;;;;;1.93;1.07;;;;;;;13.82;100.00;97686.25;5115445;28;20228;-73
2023/05/10 07:07:08;;;;;;;2.43;1.17;;;;;;;13.85;100.00;97679.59;5115169;28;20574;-74
2023/05/10 07:09:34;;;;;;;1.30;1.20;;;;;;;13.97;100.00;97683.75;5115613;28;20253;-72
2023/05/10 07:12:01;;;;;;;2.73;1.03;;;;;;;14.02;100.00;97675.78;5115672;28;20207;-72
2023/05/10 07:14:28;;;;;;;1.43;0.80;;;;;;;14.03;100.00;97688.13;5115769;28;20207;-72
2023/05/10 07:16:54;;;;;;;0.87;0.87;;;;;;;14.00;100.00;97688.59;5115033;28;20227;-72
2023/05/10 07:19:21;;;;;;;0.70;0.70;;;;;;;14.05;100.00;97696.69;5115743;28;20607;-72
2023/05/10 07:21:48;;;;;;;2.17;1.00;;;;;;;14.06;100.00;97698.28;5115397;28;20223;-72
2023/05/10 07:24:14;;;;;;;2.10;1.00;;;;;;;14.19;100.00;97697.09;5116461;28;20574;-72
2023/05/10 07:26:40;;;;;;;1.97;0.90;;;;;;;14.10;100.00;97691.38;5116223;28;20227;-73
2023/05/10 07:29:07;;;;;;;1.63;0.90;;;;;;;14.25;100.00;97701.50;5115826;28;20210;-73
2023/05/10 07:31:33;;;;;;;1.20;1.10;;;;;;;14.31;100.00;97701.31;5115527;28;20268;-72
2023/05/10 07:33:59;;;;;;;2.30;1.00;;;;;;;14.37;100.00;97705.63;5115573;28;20203;-73
2023/05/10 07:36:26;;;;;;;0.90;0.90;;;;;;;14.38;100.00;97698.44;5115513;28;20223;-73
2023/05/10 07:38:52;;;;;;;3.03;0.90;;;;;;;14.37;100.00;97705.63;5116496;28;20207;-73
2023/05/10 07:41:19;;;;;;;1.83;1.20;;;;;;;14.51;100.00;97709.53;5115451;28;20199;-73
2023/05/10 07:43:45;;;;;;;1.77;1.00;;;;;;;14.60;100.00;97709.91;5115774;28;20206;-73
2023/05/10 07:46:11;;;;;;;1.40;1.00;;;;;;;14.56;100.00;97706.91;5115774;28;20222;-72
2023/05/10 07:48:38;;;;;;;2.60;1.00;;;;;;;14.67;100.00;97702.47;5115735;28;20203;-72
2023/05/10 07:51:06;;;;;;;1.37;0.80;;;;;;;14.61;100.00;97712.28;5115678;28;20202;-73
2023/05/10 07:53:32;;;;;;;0.80;0.80;;;;;;;14.63;100.00;97718.22;5115366;28;20203;-73
2023/05/10 07:55:59;;;;;;;1.47;0.90;;;;;;;14.69;100.00;97719.88;5115239;28;20238;-73
2023/05/10 07:58:26;;;;;;;1.00;0.70;;;;;;;14.59;100.00;97718.97;5115297;28;20305;-73
2023/05/10 08:00:52;;;;;;;1.40;0.67;;;;;;;14.54;100.00;97718.91;5115658;28;20214;-73
2023/05/10 08:03:18;;;;;;;1.27;0.80;;;;;;;14.55;100.00;97723.19;5115639;28;20230;-73
2023/05/10 08:05:45;;;;;;;0.70;0.70;;;;;;;14.46;100.00;97724.72;5115017;28;20219;-73
2023/05/10 08:08:11;;;;;;;1.03;0.80;;;;;;;14.46;100.00;97712.16;5115358;28;20202;-72
2023/05/10 08:10:38;;;;;;;0.97;0.70;;;;;;;14.40;100.00;97715.03;5115350;28;20678;-73
2023/05/10 08:13:04;;;;;;;2.10;0.70;;;;;;;14.42;100.00;97720.94;5115019;28;20676;-73
2023/05/10 08:15:30;;;;;;;1.03;0.70;;;;;;;14.37;100.00;97721.69;5115106;28;20596;-73
2023/05/10 08:17:57;;;;;;;2.53;0.80;;;;;;;14.42;100.00;97715.59;5115170;28;20214;-73
2023/05/10 08:20:23;;;;;;;1.87;0.80;;;;;;;14.42;100.00;97715.59;5114965;28;20214;-73
2023/05/10 08:22:49;;;;;;;1.60;0.73;;;;;;;14.38;100.00;97725.97;5114736;28;20720;-73
2023/05/10 08:25:16;;;;;;;0.97;0.70;;;;;;;14.51;100.00;97722.91;5115264;28;20227;-73
2023/05/10 08:27:42;;;;;;;1.50;0.90;;;;;;;14.54;100.00;97727.75;5115022;28;20672;-73
2023/05/10 08:30:09;;;;;;;2.57;0.70;;;;;;;14.69;100.00;97733.25;5119573;28;20270;-73
2023/05/10 08:32:37;;;;;;;0.60;0.60;;;;;;;14.71;100.00;97728.47;5118712;28;20199;-73
2023/05/10 08:35:04;;;;;;;0.83;0.80;;;;;;;14.60;100.00;97732.09;5119159;28;20203;-73
2023/05/10 08:37:32;;;;;;;0.60;0.60;;;;;;;14.69;100.00;97737.78;5118964;28;20209;-73
2023/05/10 08:39:58;;;;;;;1.30;0.60;;;;;;;14.86;100.00;97738.50;5118610;28;20242;-73
2023/05/10 08:42:29;;;;;;;0.53;0.53;;;;;;;14.77;100.00;97738.16;5120072;28;20249;-73
2023/05/10 08:44:57;;;;;;;1.30;0.70;;;;;;;14.76;100.00;97741.09;5118906;28;20192;-73
2023/05/10 08:47:24;;;;;;;0.70;0.70;;;;;;;14.68;100.00;97739.69;5118943;28;20213;-73
2023/05/10 08:49:51;;;;;;;1.47;0.63;;;;;;;14.71;100.00;97733.84;5118821;28;20210;-73
2023/05/10 08:52:18;;;;;;;0.60;0.60;;;;;;;14.73;100.00;97737.03;5118417;28;20199;-72
2023/05/10 08:54:45;;;;;;;0.93;0.60;;;;;;;14.68;100.00;97739.69;5118587;27;20210;-73
2023/05/10 08:57:11;;;;;;;0.60;0.60;;;;;;;14.83;100.00;97736.34;5114957;28;20311;-73
2023/05/10 08:59:39;;;;;;;0.77;0.60;;;;;;;14.89;100.00;97741.50;5118539;28;20217;-73
2023/05/10 09:02:06;;;;;;;1.03;0.70;;;;;;;15.00;100.00;97743.19;5118676;28;20573;-72
2023/05/10 09:04:32;;;;;;;0.50;0.50;;;;;;;15.02;100.00;97742.94;5118433;28;20199;-73
2023/05/10 09:06:58;;;;;;;1.07;0.60;;;;;;;14.94;100.00;97748.75;5118099;28;20230;-73
2023/05/10 09:09:26;;;;;;;0.60;0.60;;;;;;;15.05;100.00;97745.91;5118182;28;20214;-73
2023/05/10 09:11:53;;;;;;;0.70;0.60;;;;;;;15.09;100.00;97747.03;5118504;27;20211;-73
2023/05/10 09:14:20;;;;;;;4.67;0.60;;;;;;;15.20;100.00;97754.06;5118325;28;20206;-73
2023/05/10 09:16:47;;;;;;;2.40;0.60;;;;;;;15.37;100.00;97754.78;5118486;28;20219;-73
2023/05/10 09:19:14;;;;;;;0.63;0.60;;;;;;;15.36;100.00;97755.03;5118281;28;20207;-73
2023/05/10 09:21:41;;;;;;;2.27;0.70;;;;;;;15.37;100.00;97754.00;5117733;28;20226;-73
2023/05/10 09:24:08;;;;;;;0.57;0.57;;;;;;;15.51;100.00;97769.34;5112098;28;20204;-73
2023/05/10 09:26:36;;;;;;;0.53;0.53;;;;;;;15.25;100.00;97774.75;5097466;28;20223;-73
2023/05/10 09:29:03;;;;;;;1.47;0.70;;;;;;;15.24;100.00;97762.41;5097535;28;20211;-73
2023/05/10 09:31:44;;;;;;;0.97;0.60;;;;;;;15.28;100.00;97764.31;5097719;28;20204;-73
2023/05/10 09:34:10;;;;;;;2.67;0.70;;;;;;;15.44;100.00;97762.59;5097105;28;20631;-73
2023/05/10 09:36:37;;;;;;;1.67;0.80;;;;;;;15.33;100.00;97769.72;5097523;28;20571;-73
2023/05/10 09:39:03;;;;;;;1.03;0.60;;;;;;;15.61;100.00;97758.69;5097191;28;20288;-73
2023/05/10 09:41:30;;;;;;;1.47;0.60;;;;;;;15.51;100.00;97758.63;5096228;28;20241;-73
2023/05/10 09:43:57;;;;;;;3.23;0.60;;;;;;;15.59;100.00;97768.88;5096891;28;20311;-73
2023/05/10 09:46:24;;;;;;;0.60;0.50;;;;;;;15.74;100.00;97765.50;5102616;22;20228;-73
2023/05/10 09:48:51;;;;;;;2.20;0.60;;;;;;;15.77;100.00;97771.16;5096702;28;20663;-73
2023/05/10 09:51:26;;;;;;;1.57;0.60;;;;;;;15.75;100.00;97769.78;5097477;28;20203;-73
2023/05/10 09:54:13;;;;;;;1.00;0.73;;;;;;;15.88;100.00;97766.66;5096755;28;20761;-73
2023/05/10 09:56:40;;;;;;;3.33;0.80;;;;;;;15.82;100.00;97770.34;5111959;28;20233;-73
2023/05/10 09:59:08;;;;;;;1.27;0.50;;;;;;;15.69;100.00;97763.59;5117264;28;20211;-73
2023/05/10 10:01:35;;;;;;;0.57;0.57;;;;;;;15.86;99.99;97764.22;5116865;28;20573;-73
2023/05/10 10:04:09;;;;;;;1.60;0.63;;;;;;;15.83;99.88;97758.59;5117144;28;20698;-73
2023/05/10 10:06:41;;;;;;;1.07;0.60;;;;;;;15.78;96.81;97778.13;5117215;28;20219;-73
2023/05/10 10:09:08;;;;;;;0.50;0.50;;;;;;;16.20;100.00;97765.47;5117474;28;20184;-73
2023/05/10 10:11:36;;;;;;;4.27;0.90;;;;;;;15.92;100.00;97773.91;5116442;28;20214;-73
2023/05/10 10:14:03;;;;;;;1.17;0.60;;;;;;;15.78;100.00;97771.97;5116990;28;20203;-73
2023/05/10 10:16:30;;;;;;;1.63;0.63;;;;;;;15.43;100.00;97764.47;5117299;28;20223;-73
2023/05/10 10:18:57;;;;;;;1.00;0.70;;;;;;;15.38;100.00;97769.78;5116713;28;20203;-73
2023/05/10 10:21:24;;;;;;;2.87;0.70;;;;;;;15.23;100.00;97769.63;5099127;28;20202;-74
2023/05/10 10:23:52;;;;;;;2.40;0.97;;;;;;;15.29;100.00;97763.25;5096136;28;20234;-74
2023/05/10 10:26:20;;;;;;;0.67;0.67;;;;;;;15.32;100.00;97770.78;5096278;28;20231;-74
2023/05/10 10:29:21;;;;;;;1.53;0.60;;;;;;;15.27;100.00;97761.88;5096127;28;20298;-74
2023/05/10 10:31:52;;;;;;;2.37;0.70;;;;;;;15.64;100.00;97763.56;5096244;28;20203;-75
2023/05/10 10:34:27;;;;;;;1.20;1.00;;;;;;;15.86;100.00;97756.19;5113054;28;20661;-74
2023/05/10 10:36:56;;;;;;;1.43;1.10;;;;;;;16.11;100.00;97750.16;5116182;28;20276;-75
2023/05/10 10:39:22;;;;;;;2.47;0.80;;;;;;;16.33;100.00;97756.94;5116565;28;20245;-74
2023/05/10 10:41:57;;;;;;;1.60;0.90;;;;;;;15.99;100.00;97758.41;5116094;28;20211;-74
2023/05/10 10:44:24;;;;;;;1.27;0.60;;;;;;;16.07;100.00;97765.97;5116398;28;20202;-74
2023/05/10 10:46:59;;;;;;;1.23;0.80;;;;;;;15.84;100.00;97760.19;5116240;28;20318;-74
2023/05/10 10:49:26;;;;;;;0.60;0.60;;;;;;;15.83;100.00;97762.06;5116763;28;20214;-73
2023/05/10 10:52:27;;;;;;;1.30;0.60;;;;;;;15.69;97.69;97779.66;5106502;28;20196;-72
2023/05/10 10:55:00;;;;;;;3.03;0.70;;;;;;;15.58;98.74;97766.44;5109963;28;20260;-73
2023/05/10 10:57:29;;;;;;;1.63;0.70;;;;;;;15.66;100.00;97763.31;5106251;28;20650;-73
2023/05/10 11:00:21;;;;;;;1.13;0.60;;;;;;;15.49;100.00;97768.00;5106548;28;20666;-73
2023/05/10 11:02:51;;;;;;;1.47;0.70;;;;;;;15.63;100.00;97775.34;5114243;28;20242;-73
2023/05/10 11:05:34;;;;;;;1.07;0.57;;;;;;;15.81;92.00;97782.97;5116294;28;20227;-73
2023/05/10 11:08:07;;;;;;;5.03;0.70;;;;;;;15.78;93.59;97777.31;5116328;28;20188;-73
2023/05/10 11:10:33;;;;;;;2.43;0.60;;;;;;;15.72;88.86;97781.84;5115835;28;20191;-72
2023/05/10 11:13:02;;;;;;;0.77;0.50;;;;;;;15.52;84.65;97783.56;5114386;28;20569;-73
2023/05/10 11:15:32;;;;;;;0.50;0.40;;;;;;;15.70;89.01;97786.63;5115335;28;20223;-73
2023/05/10 11:17:59;;;;;;;0.80;0.70;;;;;;;15.59;90.43;97787.63;5115874;28;20207;-73
2023/05/10 11:20:33;;;;;;;2.53;0.60;;;;;;;15.53;91.48;97786.00;5115805;28;20213;-72
2023/05/10 11:23:15;;;;;;;1.53;0.70;;;;;;;15.31;88.38;97779.06;5115676;28;20217;-73
2023/05/10 11:25:45;;;;;;;1.23;0.67;;;;;;;15.24;88.66;97779.28;5114433;28;20750;-73
2023/05/10 11:28:15;;;;;;;1.33;0.50;;;;;;;15.31;98.14;97777.22;5115337;28;20199;-73
2023/05/10 11:30:44;;;;;;;0.60;0.60;;;;;;;15.36;92.69;97779.13;5115376;28;20210;-73
2023/05/10 11:33:15;;;;;;;0.87;0.70;;;;;;;15.38;100.00;97783.19;5115231;28;20564;-73